• Join FlightAware (Why Join?)
  • Login
  • US Flag 
08:18AM EDT


 

Airport Tracker/Info


-or-


 

Live Flight TrackerFlight Track Log ✈ UAL3740 ✈ 14-Apr-2013 ✈ KPVD - KIAD

Flight Track Log - Related Links

Times and Time Zones

All times are in EDT time to prevent confusion due to time zone crossing. See the UAL3740 flight status page for this flight to view local times or setup timezone preferences in your user account.

Time Position Orientation Groundspeed Altitude Reporting Facility
EDT Latitude Longitude Course Direction KTS MPH feet Rate Location/Type
10:17AM 41.7008 -71.5558 267° West 205 236 3,900  Level Boston Center
10:18AM 41.7078 -71.6336 277° West 228 262 7,100 3,240 Climbing Boston Center
10:19AM 41.7706 -71.6942 324° Northwest 228 262 10,400 2,520 Climbing Boston Center
10:20AM 41.8211 -71.7519 320° Northwest 260 299 12,100 2,220 Climbing Boston Center
10:21AM 41.8592 -71.8547 296° West 279 321 14,900 2,460 Climbing Boston Center
10:22AM 41.8886 -71.9464 293° West 291 335 17,100 1,920 Climbing Boston Center
10:23AM 41.9183 -72.0300 296° West 291 335 18,800 1,860 Climbing Boston Center
10:24AM 41.9581 -72.1386 296° West 296 341 20,900 1,920 Climbing Boston Center
10:25AM 41.9939 -72.2389 296° West 296 341 22,600 1,440 Climbing Boston Center
10:26AM 42.0253 -72.3478 291° West 296 341 23,900 1,260 Climbing Boston Center
10:27AM 42.0169 -72.4681 265° West 303 349 25,100 1,140 Climbing Boston Center
10:28AM 42.0044 -72.5881 262° West 314 361 26,200 1,020 Climbing Boston Center
10:29AM 41.9936 -72.7083 263° West 320 368 27,200 900 Climbing Boston Center
10:30AM 41.9808 -72.8339 262° West 338 389 28,100 780 Climbing Boston Center
10:31AM 41.9697 -72.9678 264° West 354 407 28,800 780 Climbing Boston Center
10:32AM 41.9336 -73.1042 250° West 367 422 29,700 840 Climbing Boston Center
10:33AM 41.8683 -73.2206 233° Southwest 376 433 30,500 780 Climbing Boston Center
10:34AM 41.7986 -73.3367 231° Southwest 395 455 31,300 540 Climbing Boston Center
10:35AM 41.6833 -73.5267 231° Southwest 412 474 32,000 240 Climbing New York Center
10:36AM 41.6119 -73.6456 231° Southwest 417 480 32,000  Level New York Center
10:37AM 41.5489 -73.7539 232° Southwest 411 473 32,000  Level New York Center
10:38AM 41.4664 -73.8775 228° Southwest 429 494 32,000  Level New York Center
10:39AM 41.3781 -73.9894 224° Southwest 439 505 32,000 -60 Level New York Center
10:40AM 41.2894 -74.1039 224° Southwest 439 505 31,900 -540 Descending New York Center
10:41AM 41.1922 -74.2231 223° Southwest 444 511 31,000 -1,020 Descending New York Center
10:42AM 41.1058 -74.3317 223° Southwest 444 511 30,000 -1,020 Descending New York Center
10:43AM 41.0233 -74.4428 225° Southwest 434 499 29,000 -1,020 Descending New York Center
10:44AM 40.9389 -74.5425 222° Southwest 427 491 28,000 -540 Descending New York Center
10:45AM 40.8786 -74.6653 237° Southwest 403 464 28,000  Level New York Center
10:46AM 40.8453 -74.7869 250° West 398 458 28,000  Level New York Center
10:47AM 40.8033 -74.9161 247° West 392 451 28,000  Level New York Center
10:48AM 40.7656 -75.0453 249° West 392 451 28,000  Level New York Center
10:49AM 40.7253 -75.1769 248° West 387 445 28,000  Level New York Center
10:50AM 40.6828 -75.3083 247° West 387 445 28,000 -60 Level New York Center
10:51AM 40.6361 -75.4392 245° Southwest 392 451 27,900 -900 Descending New York Center
10:52AM 40.5831 -75.5639 241° Southwest 392 451 26,300 -2,040 Descending New York Center
10:53AM 40.5278 -75.6914 240° Southwest 398 458 23,800 -2,520 Descending New York Center
10:54AM 40.4747 -75.8158 241° Southwest 405 466 21,300 -1,980 Descending New York Center
10:55AM 40.3983 -75.9411 231° Southwest 399 459 20,000 -660 Descending New York Center
10:56AM 40.3208 -76.0414 225° Southwest 399 459 20,000 -480 Level New York Center
10:57AM 40.2414 -76.1386 223° Southwest 399 459 19,100 -960 Descending New York Center
10:59AM 40.1000 -76.3500 229° Southwest 369 425 17,200 -960 Descending Potomac TRACON
11:00AM 40.0500 -76.4500 237° Southwest 356 410 16,200 -1,080 Descending Potomac TRACON
11:01AM 40.0000 -76.5667 241° Southwest 360 414 15,100 -600 Descending Potomac TRACON
11:02AM 39.9500 -76.6833 241° Southwest 366 421 15,000 -60 Descending Potomac TRACON
11:03AM 39.8833 -76.8000 233° Southwest 370 426 15,000 -240 Level Potomac TRACON
11:04AM 39.8333 -76.9167 241° Southwest 362 417 14,600 -720 Descending Potomac TRACON
11:05AM 39.7833 -77.0167 237° Southwest 355 409 13,600 -1,080 Descending Potomac TRACON
11:06AM 39.7167 -77.1333 233° Southwest 348 400 12,500 -1,500 Descending Potomac TRACON
11:07AM 39.6667 -77.2500 241° Southwest 354 407 10,700 -1,260 Descending Potomac TRACON
11:08AM 39.5833 -77.3000 205° Southwest 306 352 10,000 -1,140 Descending Potomac TRACON
11:09AM 39.5333 -77.3167 194° South 281 323 8,600 -1,620 Descending Potomac TRACON
11:10AM 39.4500 -77.3500 197° South 275 316 7,000 -1,320 Descending Potomac TRACON
11:11AM 39.3667 -77.3667 189° South 286 329 5,900 -1,020 Descending Potomac TRACON
11:12AM 39.3000 -77.3667 180° South 277 319 5,000 -720 Descending Potomac TRACON
11:13AM 39.2333 -77.3667 180° South 227 261 4,600 -540 Descending Potomac TRACON
11:14AM 39.1667 -77.3667 180° South 226 260 4,000 -300 Descending Potomac TRACON
11:15AM 39.1000 -77.3667 180° South 221 254 4,000 -240 Level Potomac TRACON
11:16AM 39.0500 -77.3667 180° South 227 261 3,600 -540 Descending Potomac TRACON
11:17AM 38.9833 -77.3667 180° South 227 261 3,000 -360 Descending Potomac TRACON
11:18AM 38.9333 -77.3667 180° South 225 259 3,000  Level Potomac TRACON
11:19AM 38.8667 -77.3667 180° South 226 260 3,000  Level Potomac TRACON
11:20AM 38.8000 -77.3667 180° South 227 261 3,000  Level Potomac TRACON
11:21AM 38.7667 -77.4000 218° Southwest 175 201 3,000 -60 Level Potomac TRACON
11:22AM 38.8000 -77.4167 339° North 152 175 2,900 -480 Descending Potomac TRACON
11:23AM 38.8333 -77.4333 339° North 165 190 2,100 -780 Descending Potomac TRACON
11:24AM 38.8833 -77.4333 360° North 133 153 1,400 -720 Descending Potomac TRACON